createdAt,value
2023-03-01T00:01:23.663Z,95758.44
2023-03-01T00:03:52.438Z,95755.25
2023-03-01T00:06:22.197Z,95758.16
2023-03-01T00:08:50.613Z,95740.22
2023-03-01T00:11:21.481Z,95730.03
2023-03-01T00:13:53.755Z,95729.19
2023-03-01T00:16:24.197Z,95721.94
2023-03-01T00:18:52.878Z,95744.66
2023-03-01T00:21:23.217Z,95748.28
2023-03-01T00:23:52.317Z,95742.72
2023-03-01T00:26:21.909Z,95729.22
2023-03-01T00:28:52.240Z,95717.88
2023-03-01T00:31:22.505Z,95729.28
2023-03-01T00:33:54.219Z,95739.91
2023-03-01T00:36:22.463Z,95737.81
2023-03-01T00:38:50.872Z,95744.66
2023-03-01T00:41:21.149Z,95748.44
2023-03-01T00:43:49.791Z,95677.78
2023-03-01T00:46:21.791Z,95753.75
2023-03-01T00:48:50.267Z,95750.47
2023-03-01T00:51:19.795Z,95744.69
2023-03-01T00:53:48.801Z,95744.13
2023-03-01T00:56:17.475Z,95749.47
2023-03-01T00:58:46.100Z,95713.72
2023-03-01T01:01:19.287Z,95752.06
2023-03-01T01:03:53.723Z,95749.75
2023-03-01T01:06:24.616Z,95737.81
2023-03-01T01:08:53.691Z,95739.63
2023-03-01T01:11:22.820Z,95744.91
2023-03-01T01:13:52.031Z,95742.94
2023-03-01T01:16:22.133Z,95742.91
2023-03-01T01:18:52.863Z,95737.56
2023-03-01T01:21:25.063Z,95743.66
2023-03-01T01:23:54.152Z,95737.50
2023-03-01T01:26:25.204Z,95732.28
2023-03-01T01:28:54.008Z,95734.31
2023-03-01T01:31:26.304Z,95733.06
2023-03-01T01:33:56.872Z,95735.09
2023-03-01T01:36:25.521Z,95651.59
2023-03-01T01:38:54.453Z,95729.38
2023-03-01T01:41:23.834Z,95724.44
2023-03-01T01:44:07.698Z,95727.91
2023-03-01T01:46:39.729Z,95723.78
2023-03-01T01:49:19.734Z,95723.28
2023-03-01T01:51:51.333Z,95714.00
2023-03-01T01:54:24.670Z,95728.88
2023-03-01T01:56:57.408Z,95715.34
2023-03-01T01:59:27.097Z,95705.88
2023-03-01T02:01:55.582Z,95702.47
2023-03-01T02:04:26.653Z,95675.91
2023-03-01T02:07:00.346Z,95710.84
2023-03-01T02:09:29.389Z,95689.47
2023-03-01T02:11:57.821Z,95694.31
2023-03-01T02:14:26.060Z,95683.47
2023-03-01T02:16:54.660Z,95675.13
2023-03-01T02:19:43.382Z,95660.19
2023-03-01T02:22:21.433Z,95616.66
2023-03-01T02:25:01.387Z,95671.03
2023-03-01T02:27:39.038Z,95667.16
2023-03-01T02:30:13.390Z,95668.53
2023-03-01T02:32:42.753Z,95671.25
2023-03-01T02:35:13.334Z,95669.47
2023-03-01T02:37:43.267Z,95668.97
2023-03-01T02:40:16.695Z,95672.25
2023-03-01T02:42:51.164Z,95673.34
2023-03-01T02:45:20.949Z,95670.25
2023-03-01T02:47:49.480Z,95590.03
2023-03-01T02:50:31.637Z,95624.75
2023-03-01T02:53:07.386Z,95649.84
2023-03-01T02:55:35.679Z,95533.41
2023-03-01T02:58:05.044Z,95640.94
2023-03-01T03:00:41.206Z,95644.66
2023-03-01T03:03:10.355Z,95634.72
2023-03-01T03:05:38.554Z,95650.00
2023-03-01T03:08:08.823Z,95466.38
2023-03-01T03:10:40.604Z,95636.09
2023-03-01T03:13:10.487Z,95645.63
2023-03-01T03:15:41.847Z,95640.88
2023-03-01T03:18:12.124Z,95633.38
2023-03-01T03:20:42.708Z,95629.16
2023-03-01T03:23:11.048Z,95615.09
2023-03-01T03:25:39.697Z,95616.31
2023-03-01T03:28:11.680Z,95619.94
2023-03-01T03:31:00.578Z,95616.50
2023-03-01T03:33:28.826Z,95614.97
2023-03-01T03:35:57.124Z,95624.19
2023-03-01T03:38:25.597Z,95618.31
2023-03-01T03:41:02.186Z,95629.06
2023-03-01T03:43:31.518Z,95539.41
2023-03-01T03:46:19.890Z,95604.03
2023-03-01T03:48:48.394Z,95581.09
2023-03-01T03:51:18.807Z,95637.72
2023-03-01T03:53:47.809Z,95641.63
2023-03-01T03:56:16.101Z,95442.84
2023-03-01T03:59:02.633Z,95632.78
2023-03-01T04:01:50.889Z,95638.00
2023-03-01T04:04:20.094Z,95637.56
2023-03-01T04:06:49.575Z,95630.53
2023-03-01T04:09:17.843Z,95642.63
2023-03-01T04:11:46.153Z,95642.69
2023-03-01T04:14:14.433Z,95627.91
2023-03-01T04:16:42.819Z,95634.84
2023-03-01T04:19:12.607Z,95641.22
2023-03-01T04:21:41.030Z,95631.28
2023-03-01T04:24:10.736Z,95633.41
2023-03-01T04:26:38.992Z,95642.28
2023-03-01T04:29:07.308Z,95635.88
2023-03-01T04:31:35.614Z,95639.69
2023-03-01T04:34:03.911Z,95631.34
2023-03-01T04:36:37.003Z,95634.75
2023-03-01T04:39:13.328Z,95625.03
2023-03-01T04:41:42.328Z,95632.63
2023-03-01T04:44:10.656Z,95636.53
2023-03-01T04:46:39.148Z,95633.69
2023-03-01T04:49:07.651Z,95641.78
2023-03-01T04:51:37.230Z,95637.28
2023-03-01T04:54:09.834Z,95619.56
2023-03-01T04:56:38.060Z,95642.53
2023-03-01T04:59:06.874Z,95594.88
2023-03-01T05:01:36.651Z,95640.16
2023-03-01T05:04:06.497Z,95645.41
2023-03-01T05:06:36.224Z,95641.59
2023-03-01T05:09:04.600Z,95636.91
2023-03-01T05:11:36.872Z,95642.59
2023-03-01T05:14:05.939Z,95644.06
2023-03-01T05:16:36.171Z,95605.31
2023-03-01T05:19:12.891Z,95638.16
2023-03-01T05:22:02.697Z,95644.03
2023-03-01T05:24:32.482Z,95628.72
2023-03-01T05:27:01.323Z,95644.38
2023-03-01T05:29:31.554Z,95615.28
2023-03-01T05:32:02.106Z,95652.00
2023-03-01T05:34:35.931Z,95646.03
2023-03-01T05:37:06.334Z,95654.47
2023-03-01T05:39:34.588Z,95653.38
2023-03-01T05:42:03.789Z,95649.09
2023-03-01T05:44:32.415Z,95650.22
2023-03-01T05:47:00.682Z,95651.25
2023-03-01T05:49:28.924Z,95657.38
2023-03-01T05:51:57.650Z,95656.00
2023-03-01T05:54:27.352Z,95618.13
2023-03-01T05:56:55.602Z,95657.88
2023-03-01T05:59:24.158Z,95667.06
2023-03-01T06:01:52.450Z,95656.88
2023-03-01T06:04:20.772Z,95659.25
2023-03-01T06:06:49.096Z,95666.13
2023-03-01T06:09:17.420Z,95666.19
2023-03-01T06:11:47.097Z,95665.41
2023-03-01T06:14:15.739Z,95673.91
2023-03-01T06:16:43.962Z,95668.91
2023-03-01T06:19:12.252Z,95675.25
2023-03-01T06:21:40.605Z,95659.50
2023-03-01T06:24:09.553Z,95669.06
2023-03-01T06:26:37.854Z,95676.06
2023-03-01T06:29:07.446Z,95674.47
2023-03-01T06:31:35.722Z,95671.78
2023-03-01T06:34:04.256Z,95677.88
2023-03-01T06:36:32.717Z,95681.63
2023-03-01T06:39:01.188Z,95677.94
2023-03-01T06:41:29.506Z,95625.38
2023-03-01T06:43:57.771Z,95664.13
2023-03-01T06:46:28.988Z,95673.41
2023-03-01T06:48:57.487Z,95659.88
2023-03-01T06:51:26.409Z,95684.03
2023-03-01T06:53:55.766Z,95685.88
2023-03-01T06:56:24.003Z,95687.50
2023-03-01T06:58:52.249Z,95686.16
2023-03-01T07:01:20.569Z,95683.22
2023-03-01T07:03:50.260Z,95682.69
2023-03-01T07:06:18.708Z,95679.25
2023-03-01T07:08:47.015Z,95680.59
2023-03-01T07:11:15.396Z,95681.09
2023-03-01T07:13:43.686Z,95686.41
2023-03-01T07:16:11.987Z,95684.81
2023-03-01T07:18:40.312Z,95688.00
2023-03-01T07:21:11.842Z,95608.09
2023-03-01T07:23:40.140Z,95687.75
2023-03-01T07:26:08.908Z,95688.03
2023-03-01T07:28:39.753Z,95682.97
2023-03-01T07:31:08.732Z,95690.94
2023-03-01T07:33:37.090Z,95689.34
2023-03-01T07:36:06.746Z,95658.28
2023-03-01T07:38:36.510Z,95680.34
2023-03-01T07:41:06.811Z,95680.59
2023-03-01T07:43:35.912Z,95681.38
2023-03-01T07:46:05.159Z,95683.22
2023-03-01T07:48:34.157Z,95678.72
2023-03-01T07:51:03.014Z,95691.19
2023-03-01T07:53:32.358Z,95680.59
2023-03-01T07:56:08.542Z,95671.81
2023-03-01T07:58:37.689Z,95623.00
2023-03-01T08:01:07.105Z,95675.78
2023-03-01T08:03:35.713Z,95676.59
2023-03-01T08:06:05.248Z,95634.63
2023-03-01T08:08:33.910Z,95675.63
2023-03-01T08:11:03.662Z,95671.97
2023-03-01T08:13:33.781Z,95676.50
2023-03-01T08:16:04.546Z,95672.00
2023-03-01T08:18:32.908Z,95658.97
2023-03-01T08:21:04.644Z,95658.44
2023-03-01T08:23:32.994Z,95663.34
2023-03-01T08:26:09.398Z,95657.22
2023-03-01T08:28:39.414Z,95657.22
2023-03-01T08:31:17.086Z,95661.38
2023-03-01T08:33:51.654Z,95654.56
2023-03-01T08:36:22.054Z,95660.59
2023-03-01T08:38:50.611Z,95665.91
2023-03-01T08:41:19.137Z,95660.03
2023-03-01T08:43:48.778Z,95664.13
2023-03-01T08:46:17.237Z,95661.66
2023-03-01T08:48:45.574Z,95654.78
2023-03-01T08:51:16.380Z,95656.03
2023-03-01T08:53:45.014Z,95649.41
2023-03-01T08:56:13.618Z,95644.78
2023-03-01T08:58:42.403Z,95643.28
2023-03-01T09:01:13.043Z,95644.22
2023-03-01T09:03:41.630Z,95645.72
2023-03-01T09:06:10.255Z,95644.63
2023-03-01T09:08:39.654Z,95642.75
2023-03-01T09:11:09.327Z,95643.13
2023-03-01T09:13:37.794Z,95583.28
2023-03-01T09:16:08.198Z,95644.47
2023-03-01T09:18:38.125Z,95635.03
2023-03-01T09:21:09.240Z,95635.69
2023-03-01T09:23:40.084Z,95626.34
2023-03-01T09:26:09.650Z,95637.16
2023-03-01T09:28:39.656Z,95634.88
2023-03-01T09:31:08.278Z,95558.84
2023-03-01T09:33:37.933Z,95641.53
2023-03-01T09:36:08.852Z,95639.41
2023-03-01T09:38:37.224Z,95644.88
2023-03-01T09:41:13.012Z,95623.66
2023-03-01T09:43:48.122Z,95612.50
2023-03-01T09:46:18.369Z,95629.72
2023-03-01T09:48:52.876Z,95606.88
2023-03-01T09:51:27.341Z,95502.53
2023-03-01T09:53:58.115Z,95584.31
2023-03-01T09:56:34.663Z,95624.69
2023-03-01T09:59:17.738Z,95623.03
2023-03-01T10:01:54.590Z,95625.81
2023-03-01T10:04:43.584Z,95621.72
2023-03-01T10:07:32.633Z,95624.53
2023-03-01T10:10:01.891Z,95454.63
2023-03-01T10:12:36.634Z,95604.59
2023-03-01T10:15:11.792Z,95613.94
2023-03-01T10:17:44.465Z,95603.22
2023-03-01T10:20:26.686Z,95611.16
2023-03-01T10:22:56.584Z,95596.84
2023-03-01T10:25:46.952Z,95604.38
2023-03-01T10:28:19.904Z,95598.75
2023-03-01T10:30:48.374Z,95595.59
2023-03-01T10:33:22.479Z,95594.16
2023-03-01T10:35:52.823Z,95588.94
2023-03-01T10:38:22.625Z,95590.56
2023-03-01T10:40:58.206Z,95586.41
2023-03-01T10:43:27.752Z,95530.00
2023-03-01T10:45:56.349Z,95585.69
2023-03-01T10:48:27.460Z,95578.94
2023-03-01T10:51:09.784Z,95581.63
2023-03-01T10:53:40.736Z,95555.31
2023-03-01T10:56:11.920Z,95559.56
2023-03-01T10:58:42.290Z,95559.56
2023-03-01T11:01:29.442Z,95566.31
2023-03-01T11:04:14.983Z,95559.56
2023-03-01T11:06:45.830Z,95554.22
2023-03-01T11:09:18.590Z,95539.81
2023-03-01T11:11:47.056Z,95548.34
2023-03-01T11:14:26.703Z,95544.25
2023-03-01T11:17:02.950Z,95539.47
2023-03-01T11:19:31.522Z,95542.06
2023-03-01T11:22:05.456Z,95536.06
2023-03-01T11:24:42.339Z,95544.63
2023-03-01T11:27:19.360Z,95542.88
2023-03-01T11:29:52.281Z,95513.44
2023-03-01T11:32:23.477Z,95523.09
2023-03-01T11:34:57.257Z,95533.00
2023-03-01T11:37:36.068Z,95532.47
2023-03-01T11:40:25.528Z,95528.84
2023-03-01T11:43:08.668Z,95526.28
2023-03-01T11:45:49.996Z,95516.44
2023-03-01T11:48:48.805Z,95514.84
2023-03-01T11:51:26.717Z,95507.19
2023-03-01T11:54:12.258Z,95511.13
2023-03-01T11:56:45.852Z,95507.06
2023-03-01T11:59:34.368Z,95512.25
2023-03-01T12:02:27.710Z,95497.53
2023-03-01T12:05:28.623Z,95432.06
2023-03-01T12:08:04.581Z,95492.22
2023-03-01T12:10:43.821Z,95502.69
2023-03-01T12:13:35.635Z,95503.56
2023-03-01T12:16:38.319Z,95492.59
2023-03-01T12:19:31.922Z,95489.63
2023-03-01T12:22:13.909Z,95486.00
2023-03-01T12:25:18.309Z,95487.03
2023-03-01T12:28:11.132Z,95490.72
2023-03-01T12:30:56.094Z,95463.31
2023-03-01T12:33:34.769Z,95481.94
2023-03-01T12:36:36.214Z,95480.00
2023-03-01T12:39:20.304Z,95481.31
2023-03-01T12:42:04.020Z,95476.25
2023-03-01T12:44:48.144Z,95477.53
2023-03-01T12:47:33.186Z,95414.84
2023-03-01T12:50:05.440Z,95470.81
2023-03-01T12:52:41.292Z,95480.44
2023-03-01T12:55:20.388Z,95476.66
2023-03-01T12:57:55.685Z,95394.28
2023-03-01T13:00:33.229Z,95481.31
2023-03-01T13:03:13.222Z,95475.44
2023-03-01T13:05:47.801Z,95467.09
2023-03-01T13:08:23.249Z,95418.38
2023-03-01T13:10:55.042Z,95462.34
2023-03-01T13:13:24.845Z,95478.25
2023-03-01T13:15:55.690Z,95476.84
2023-03-01T13:18:35.635Z,95475.19
2023-03-01T13:21:06.703Z,95455.59
2023-03-01T13:23:37.950Z,95478.31
2023-03-01T13:26:13.755Z,95475.19
2023-03-01T13:28:51.700Z,95475.56
2023-03-01T13:32:02.872Z,95467.91
2023-03-01T13:34:47.777Z,95467.09
2023-03-01T13:37:32.402Z,95461.22
2023-03-01T13:40:06.001Z,95413.03
2023-03-01T13:42:41.720Z,95457.03
2023-03-01T13:45:21.436Z,95423.13
2023-03-01T13:47:54.400Z,95459.53
2023-03-01T13:50:27.118Z,95468.13
2023-03-01T13:53:00.411Z,95467.47
2023-03-01T13:55:37.529Z,95461.13
2023-03-01T13:58:17.037Z,95469.78
2023-03-01T14:00:45.638Z,95460.97
2023-03-01T14:03:17.407Z,95457.56
2023-03-01T14:06:13.158Z,95456.25
2023-03-01T14:08:42.705Z,95445.38
2023-03-01T14:11:47.987Z,95453.97
2023-03-01T14:14:33.161Z,95456.03
2023-03-01T14:17:26.318Z,95457.47
2023-03-01T14:19:59.273Z,95452.22
2023-03-01T14:22:31.286Z,95455.06
2023-03-01T14:25:02.153Z,95452.84
2023-03-01T14:27:35.645Z,95449.47
2023-03-01T14:30:13.657Z,95454.84
2023-03-01T14:32:42.016Z,95453.25
2023-03-01T14:35:22.829Z,95455.97
2023-03-01T14:37:52.734Z,95455.44
2023-03-01T14:40:30.265Z,95453.44
2023-03-01T14:43:01.692Z,95390.09
2023-03-01T14:45:32.792Z,95453.63
2023-03-01T14:48:03.951Z,95457.16
2023-03-01T14:50:34.502Z,95467.75
2023-03-01T14:53:06.862Z,95456.91
2023-03-01T14:55:38.016Z,95454.19
2023-03-01T14:58:08.030Z,95451.75
2023-03-01T15:00:37.923Z,95453.47
2023-03-01T15:03:14.570Z,95434.16
2023-03-01T15:05:45.368Z,95456.78
2023-03-01T15:08:22.702Z,95442.88
2023-03-01T15:11:09.076Z,95454.09
2023-03-01T15:13:38.282Z,95444.31
2023-03-01T15:16:10.340Z,95443.59
2023-03-01T15:18:39.354Z,95443.25
2023-03-01T15:21:10.282Z,95447.53
2023-03-01T15:23:42.554Z,95442.00
2023-03-01T15:26:28.768Z,95332.25
2023-03-01T15:29:00.310Z,95444.81
2023-03-01T15:31:32.123Z,95436.31
2023-03-01T15:34:24.561Z,95428.84
2023-03-01T15:36:55.683Z,95413.50
2023-03-01T15:39:38.520Z,95450.88
2023-03-01T15:42:09.259Z,95445.94
2023-03-01T15:44:43.869Z,95440.75
2023-03-01T15:47:31.045Z,95455.28
2023-03-01T15:50:01.317Z,95448.22
2023-03-01T15:52:32.009Z,95458.88
2023-03-01T15:55:04.286Z,95463.38
2023-03-01T15:57:32.676Z,95470.72
2023-03-01T16:00:01.008Z,95411.25
2023-03-01T16:02:29.414Z,95463.47
2023-03-01T16:04:58.475Z,95464.50
2023-03-01T16:07:29.051Z,95468.72
2023-03-01T16:09:57.469Z,95463.38
2023-03-01T16:12:27.201Z,95466.75
2023-03-01T16:14:55.461Z,95466.03
2023-03-01T16:17:23.770Z,95467.56
2023-03-01T16:19:52.053Z,95467.06
2023-03-01T16:22:26.068Z,95472.50
2023-03-01T16:24:54.813Z,95469.97
2023-03-01T16:27:23.453Z,95448.22
2023-03-01T16:29:53.287Z,95472.59
2023-03-01T16:32:21.608Z,95478.28
2023-03-01T16:34:50.452Z,95465.63
2023-03-01T16:37:20.362Z,95441.72
2023-03-01T16:39:49.980Z,95467.63
2023-03-01T16:42:18.934Z,95438.94
2023-03-01T16:44:47.395Z,95475.16
2023-03-01T16:47:17.075Z,95464.16
2023-03-01T16:49:45.450Z,95451.31
2023-03-01T16:52:13.744Z,95468.88
2023-03-01T16:54:42.065Z,95478.22
2023-03-01T16:57:10.460Z,95481.19
2023-03-01T16:59:38.800Z,95484.41
2023-03-01T17:02:09.318Z,95487.06
2023-03-01T17:04:39.038Z,95474.63
2023-03-01T17:07:07.400Z,95488.38
2023-03-01T17:09:37.907Z,95484.16
2023-03-01T17:12:06.573Z,95434.72
2023-03-01T17:14:34.891Z,95479.72
2023-03-01T17:17:03.852Z,95474.09
2023-03-01T17:19:32.991Z,95473.81
2023-03-01T17:22:02.686Z,95475.75
2023-03-01T17:24:34.024Z,95481.28
2023-03-01T17:27:02.571Z,95463.91
2023-03-01T17:29:31.104Z,95492.03
2023-03-01T17:31:59.898Z,95494.09
2023-03-01T17:34:28.329Z,95492.69
2023-03-01T17:36:56.627Z,95501.69
2023-03-01T17:39:32.214Z,95496.66
2023-03-01T17:42:00.858Z,95506.00
2023-03-01T17:44:29.293Z,95476.25
2023-03-01T17:46:57.502Z,95496.94
2023-03-01T17:49:25.780Z,95500.47
2023-03-01T17:51:54.179Z,95505.59
2023-03-01T17:54:22.534Z,95505.50
2023-03-01T17:56:52.683Z,95507.88
2023-03-01T17:59:21.286Z,95502.78
2023-03-01T18:01:49.558Z,95506.00
2023-03-01T18:04:18.602Z,95501.22
2023-03-01T18:06:49.789Z,95473.81
2023-03-01T18:09:18.054Z,95510.06
2023-03-01T18:11:47.886Z,95508.75
2023-03-01T18:14:17.714Z,95504.84
2023-03-01T18:16:46.260Z,95496.09
2023-03-01T18:19:14.569Z,95515.72
2023-03-01T18:21:44.126Z,95508.00
2023-03-01T18:24:12.671Z,95469.72
2023-03-01T18:26:41.093Z,95536.56
2023-03-01T18:29:10.728Z,95511.63
2023-03-01T18:31:40.673Z,95530.19
2023-03-01T18:34:08.912Z,95527.53
2023-03-01T18:36:47.960Z,95538.97
2023-03-01T18:39:24.987Z,95535.22
2023-03-01T18:41:53.406Z,95536.84
2023-03-01T18:44:21.727Z,95542.69
2023-03-01T18:46:53.088Z,95528.69
2023-03-01T18:49:21.303Z,95539.00
2023-03-01T18:51:51.166Z,95413.31
2023-03-01T18:54:19.794Z,95540.31
2023-03-01T18:56:48.221Z,95540.63
2023-03-01T18:59:16.529Z,95544.84
2023-03-01T19:01:44.871Z,95541.13
2023-03-01T19:04:15.116Z,95551.22
2023-03-01T19:06:43.549Z,95551.53
2023-03-01T19:09:12.781Z,95544.66
2023-03-01T19:11:41.081Z,95565.88
2023-03-01T19:14:09.743Z,95554.19
2023-03-01T19:16:38.050Z,95520.28
2023-03-01T19:19:08.581Z,95536.88
2023-03-01T19:21:38.772Z,95553.44
2023-03-01T19:24:07.990Z,95565.75
2023-03-01T19:26:36.491Z,95513.00
2023-03-01T19:29:06.360Z,95567.88
2023-03-01T19:31:34.758Z,95563.22
2023-03-01T19:34:11.446Z,95575.13
2023-03-01T19:36:43.156Z,95561.03
2023-03-01T19:39:13.747Z,95579.31
2023-03-01T19:41:42.521Z,95550.56
2023-03-01T19:44:11.454Z,95579.13
2023-03-01T19:46:40.064Z,95563.50
2023-03-01T19:49:08.585Z,95576.06
2023-03-01T19:51:39.512Z,95582.13
2023-03-01T19:54:11.920Z,95587.53
2023-03-01T19:56:40.504Z,95578.31
2023-03-01T19:59:09.212Z,95588.63
2023-03-01T20:01:38.280Z,95569.78
2023-03-01T20:04:07.151Z,95563.69
2023-03-01T20:06:35.736Z,95563.19
2023-03-01T20:09:18.977Z,95588.34
2023-03-01T20:11:50.478Z,95593.19
2023-03-01T20:14:19.344Z,95594.19
2023-03-01T20:16:48.477Z,95583.84
2023-03-01T20:19:16.808Z,95588.31
2023-03-01T20:21:45.073Z,95601.34
2023-03-01T20:24:15.036Z,95590.03
2023-03-01T20:26:43.367Z,95537.28
2023-03-01T20:29:13.107Z,95603.06
2023-03-01T20:31:42.816Z,95596.94
2023-03-01T20:34:11.435Z,95600.66
2023-03-01T20:36:41.100Z,95575.75
2023-03-01T20:39:09.867Z,95600.16
2023-03-01T20:41:38.107Z,95600.69
2023-03-01T20:44:07.325Z,95514.25
2023-03-01T20:46:37.827Z,95596.47
2023-03-01T20:49:07.396Z,95607.59
2023-03-01T20:51:35.732Z,95612.63
2023-03-01T20:54:05.257Z,95606.56
2023-03-01T20:56:34.024Z,95598.59
2023-03-01T20:59:04.490Z,95582.13
2023-03-01T21:01:32.925Z,95602.53
2023-03-01T21:04:02.807Z,95588.19
2023-03-01T21:06:31.682Z,95578.31
2023-03-01T21:09:01.441Z,95596.97
2023-03-01T21:11:29.786Z,95602.00
2023-03-01T21:13:58.198Z,95536.25
2023-03-01T21:16:27.022Z,95604.13
2023-03-01T21:18:55.449Z,95510.81
2023-03-01T21:21:25.345Z,95606.78
2023-03-01T21:23:54.889Z,95603.91
2023-03-01T21:26:25.440Z,95609.22
2023-03-01T21:28:57.395Z,95611.88
2023-03-01T21:31:28.698Z,95577.38
2023-03-01T21:33:59.250Z,95604.69
2023-03-01T21:36:30.739Z,95606.28
2023-03-01T21:39:01.993Z,95602.81
2023-03-01T21:41:32.552Z,95605.72
2023-03-01T21:44:03.279Z,95595.63
2023-03-01T21:46:36.680Z,95574.91
2023-03-01T21:49:07.381Z,95590.88
2023-03-01T21:51:37.614Z,95589.84
2023-03-01T21:54:06.934Z,95585.06
2023-03-01T21:56:39.291Z,95576.56
2023-03-01T21:59:09.497Z,95530.41
2023-03-01T22:01:37.826Z,95570.72
2023-03-01T22:04:06.603Z,95517.44
2023-03-01T22:06:40.901Z,95517.16
2023-03-01T22:09:11.160Z,95583.97
2023-03-01T22:11:42.289Z,95560.59
2023-03-01T22:14:13.552Z,95575.97
2023-03-01T22:16:45.340Z,95578.63
2023-03-01T22:19:15.778Z,95572.75
2023-03-01T22:21:49.813Z,95572.69
2023-03-01T22:24:19.996Z,95577.25
2023-03-01T22:26:50.297Z,95577.31
2023-03-01T22:29:21.506Z,95554.72
2023-03-01T22:31:50.019Z,95575.72
2023-03-01T22:34:18.544Z,95573.06
2023-03-01T22:36:48.361Z,95580.97
2023-03-01T22:39:18.957Z,95570.13
2023-03-01T22:41:48.820Z,95577.56
2023-03-01T22:44:19.157Z,95584.16
2023-03-01T22:46:47.952Z,95540.16
2023-03-01T22:49:16.849Z,95560.25
2023-03-01T22:51:47.668Z,95572.34
2023-03-01T22:54:18.842Z,95579.44
2023-03-01T22:56:47.667Z,95575.50
2023-03-01T22:59:19.066Z,95580.56
2023-03-01T23:01:48.658Z,95588.22
2023-03-01T23:04:17.796Z,95590.06
2023-03-01T23:06:55.386Z,95585.34
2023-03-01T23:09:27.551Z,95582.13
2023-03-01T23:11:56.614Z,95589.84
2023-03-01T23:14:25.648Z,95564.88
2023-03-01T23:16:54.404Z,95617.16
2023-03-01T23:19:23.201Z,95582.34
2023-03-01T23:21:51.608Z,95587.38
2023-03-01T23:24:21.478Z,95582.94
2023-03-01T23:26:53.488Z,95594.03
2023-03-01T23:29:22.132Z,95541.56
2023-03-01T23:31:50.550Z,95586.34
2023-03-01T23:34:19.409Z,95570.47
2023-03-01T23:36:47.637Z,95568.34
2023-03-01T23:39:15.969Z,95593.81
2023-03-01T23:41:44.363Z,95595.38
2023-03-01T23:44:17.298Z,95526.69
2023-03-01T23:46:46.482Z,95552.41
2023-03-01T23:49:16.778Z,95595.38
2023-03-01T23:51:47.866Z,95536.78
2023-03-01T23:54:18.542Z,95589.84
2023-03-01T23:56:47.870Z,95589.31
2023-03-01T23:59:19.979Z,95598.25
